createdAt,value
2018-11-04T00:00:30.604Z,100820.92
2018-11-04T00:01:08.651Z,100823.05
2018-11-04T00:01:47.338Z,100823.83
2018-11-04T00:02:25.480Z,100826.22
2018-11-04T00:03:03.417Z,100827.57
2018-11-04T00:03:41.612Z,100827.55
2018-11-04T00:04:19.801Z,100826.97
2018-11-04T00:04:57.874Z,100831.53
2018-11-04T00:05:35.779Z,100828.81
2018-11-04T00:06:13.966Z,100822.61
2018-11-04T00:06:52.069Z,100831.72
2018-11-04T00:07:30.079Z,100834.42
2018-11-04T00:08:07.987Z,100831.69
2018-11-04T00:08:47.581Z,100830.31
2018-11-04T00:09:25.638Z,100828.94
2018-11-04T00:10:03.568Z,100823.80
2018-11-04T00:10:41.712Z,100825.63
2018-11-04T00:11:19.588Z,100822.91
2018-11-04T00:11:58.361Z,100819.89
2018-11-04T00:12:36.376Z,100819.34
2018-11-04T00:13:14.449Z,100815.81
2018-11-04T00:13:52.394Z,100811.98
2018-11-04T00:14:31.322Z,100810.86
2018-11-04T00:15:09.685Z,100814.33
2018-11-04T00:15:47.662Z,100814.30
2018-11-04T00:16:25.606Z,100816.97
2018-11-04T00:17:03.580Z,100820.44
2018-11-04T00:17:42.222Z,100820.69
2018-11-04T00:18:20.279Z,100823.09
2018-11-04T00:18:58.135Z,100824.13
2018-11-04T00:19:36.134Z,100823.54
2018-11-04T00:20:16.316Z,100823.50
2018-11-04T00:20:54.633Z,100828.84
2018-11-04T00:21:32.693Z,100829.63
2018-11-04T00:22:10.858Z,100822.88
2018-11-04T00:22:48.915Z,100829.02
2018-11-04T00:23:26.830Z,100834.34
2018-11-04T00:24:04.820Z,100825.66
2018-11-04T00:24:42.810Z,100824.52
2018-11-04T00:25:20.756Z,100827.18
2018-11-04T00:25:58.695Z,100832.51
2018-11-04T00:26:36.663Z,100829.77
2018-11-04T00:27:14.605Z,100839.44
2018-11-04T00:27:52.695Z,100833.73
2018-11-04T00:28:30.731Z,100835.30
2018-11-04T00:29:08.612Z,100829.59
2018-11-04T00:29:46.742Z,100831.75
2018-11-04T00:30:25.748Z,100839.19
2018-11-04T00:31:03.647Z,100837.50
2018-11-04T00:31:41.537Z,100835.30
2018-11-04T00:32:19.443Z,100840.41
2018-11-04T00:32:57.393Z,100837.92
2018-11-04T00:33:35.480Z,100833.31
2018-11-04T00:34:13.988Z,100837.92
2018-11-04T00:34:51.925Z,100837.87
2018-11-04T00:35:29.807Z,100842.94
2018-11-04T00:36:07.693Z,100842.94
2018-11-04T00:36:45.720Z,100849.61
2018-11-04T00:37:23.931Z,100850.96
2018-11-04T00:38:01.989Z,100841.84
2018-11-04T00:38:39.912Z,100854.67
2018-11-04T00:39:18.185Z,100857.30
2018-11-04T00:39:56.028Z,100858.90
2018-11-04T00:40:33.881Z,100858.34
2018-11-04T00:41:11.783Z,100853.97
2018-11-04T00:41:49.916Z,100862.04
2018-11-04T00:42:28.031Z,100863.85
2018-11-04T00:43:06.127Z,100867.06
2018-11-04T00:43:44.028Z,100860.20
2018-11-04T00:44:22.025Z,100858.05
2018-11-04T00:45:00.023Z,100864.95
2018-11-04T00:45:38.073Z,100862.45
2018-11-04T00:46:16.033Z,100861.31
2018-11-04T00:46:54.862Z,100867.73
2018-11-04T00:47:33.116Z,100864.13
2018-11-04T00:48:11.369Z,100869.27
2018-11-04T00:48:49.446Z,100857.09
2018-11-04T00:49:27.429Z,100866.66
2018-11-04T00:50:05.594Z,100867.11
2018-11-04T00:50:43.420Z,100861.38
2018-11-04T00:51:21.326Z,100867.83
2018-11-04T00:51:59.400Z,100868.03
2018-11-04T00:52:37.457Z,100861.76
2018-11-04T00:53:16.132Z,100866.81
2018-11-04T00:53:54.008Z,100866.77
2018-11-04T00:54:32.186Z,100862.45
2018-11-04T00:55:11.232Z,100868.27
2018-11-04T00:55:51.149Z,100874.43
2018-11-04T00:56:29.135Z,100875.46
2018-11-04T00:57:07.009Z,100873.75
2018-11-04T00:57:45.247Z,100871.79
2018-11-04T00:58:23.333Z,100883.63
2018-11-04T00:59:16.442Z,100879.50
2018-11-04T00:59:54.284Z,100878.84
2018-11-04T01:00:32.341Z,100876.91
2018-11-04T01:01:11.779Z,100880.39
2018-11-04T01:01:49.987Z,100882.25
2018-11-04T01:02:28.084Z,100882.13
2018-11-04T01:03:06.042Z,100881.27
2018-11-04T01:03:44.029Z,100887.69
2018-11-04T01:04:21.956Z,100885.47
2018-11-04T01:04:59.890Z,100884.09
2018-11-04T01:05:37.840Z,100886.50
2018-11-04T01:06:16.728Z,100878.86
2018-11-04T01:06:54.689Z,100885.33
2018-11-04T01:07:33.526Z,100886.62
2018-11-04T01:08:11.541Z,100885.27
2018-11-04T01:08:49.567Z,100894.64
2018-11-04T01:09:27.692Z,100889.97
2018-11-04T01:10:05.553Z,100894.03
2018-11-04T01:10:43.541Z,100891.81
2018-11-04T01:11:21.553Z,100898.78
2018-11-04T01:11:59.651Z,100899.55
2018-11-04T01:12:37.758Z,100896.53
2018-11-04T01:13:15.948Z,100898.14
2018-11-04T01:13:53.865Z,100904.30
2018-11-04T01:14:32.421Z,100906.16
2018-11-04T01:15:12.613Z,100905.32
2018-11-04T01:15:50.481Z,100905.32
2018-11-04T01:16:28.653Z,100910.63
2018-11-04T01:17:06.675Z,100912.72
2018-11-04T01:17:45.182Z,100915.93
2018-11-04T01:18:23.090Z,100913.73
2018-11-04T01:19:01.076Z,100913.12
2018-11-04T01:19:39.102Z,100915.52
2018-11-04T01:20:19.908Z,100916.82
2018-11-04T01:20:58.324Z,100915.71
2018-11-04T01:21:36.532Z,100917.56
2018-11-04T01:22:14.496Z,100919.34
2018-11-04T01:22:53.654Z,100914.34
2018-11-04T01:23:31.493Z,100919.19
2018-11-04T01:24:09.466Z,100922.64
2018-11-04T01:24:47.479Z,100924.67
2018-11-04T01:25:25.365Z,100922.13
2018-11-04T01:26:03.362Z,100922.63
2018-11-04T01:26:41.334Z,100926.94
2018-11-04T01:27:19.513Z,100926.14
2018-11-04T01:27:57.600Z,100931.33
2018-11-04T01:28:35.461Z,100921.27
2018-11-04T01:29:13.501Z,100932.92
2018-11-04T01:29:51.428Z,100929.31
2018-11-04T01:30:29.516Z,100934.39
2018-11-04T01:31:07.605Z,100934.64
2018-11-04T01:31:45.539Z,100935.13
2018-11-04T01:32:23.458Z,100934.27
2018-11-04T01:33:01.757Z,100931.55
2018-11-04T01:33:39.769Z,100929.08
2018-11-04T01:34:18.025Z,100930.12
2018-11-04T01:34:56.001Z,100933.16
2018-11-04T01:35:34.067Z,100928.83
2018-11-04T01:36:12.009Z,100930.12
2018-11-04T01:36:49.772Z,100933.02
2018-11-04T01:37:27.577Z,100931.03
2018-11-04T01:38:05.649Z,100935.59
2018-11-04T01:38:43.777Z,100932.33
2018-11-04T01:39:21.829Z,100937.13
2018-11-04T01:39:59.833Z,100935.49
2018-11-04T01:40:37.929Z,100940.55
2018-11-04T01:41:15.881Z,100936.95
2018-11-04T01:41:53.772Z,100936.95
2018-11-04T01:42:31.841Z,100942.33
2018-11-04T01:43:09.998Z,100941.59
2018-11-04T01:43:47.928Z,100939.67
2018-11-04T01:44:26.279Z,100943.99
2018-11-04T01:45:04.265Z,100948.55
2018-11-04T01:45:43.053Z,100947.12
2018-11-04T01:46:21.084Z,100946.57
2018-11-04T01:46:58.972Z,100946.19
2018-11-04T01:47:37.661Z,100951.38
2018-11-04T01:48:15.682Z,100946.92
2018-11-04T01:48:54.221Z,100951.48
2018-11-04T01:49:32.361Z,100950.64
2018-11-04T01:50:12.002Z,100952.11
2018-11-04T01:50:50.022Z,100956.08
2018-11-04T01:51:28.107Z,100956.67
2018-11-04T01:52:06.052Z,100958.28
2018-11-04T01:52:43.997Z,100959.11
2018-11-04T01:53:22.080Z,100957.30
2018-11-04T01:54:00.231Z,100954.58
2018-11-04T01:54:38.081Z,100954.09
2018-11-04T01:55:16.265Z,100957.30
2018-11-04T01:55:54.349Z,100963.53
2018-11-04T01:56:32.457Z,100956.19
2018-11-04T01:57:10.498Z,100959.95
2018-11-04T01:57:48.397Z,100958.59
2018-11-04T01:58:26.321Z,100963.91
2018-11-04T01:59:04.550Z,100963.63
2018-11-04T01:59:42.590Z,100963.70
2018-11-04T02:00:21.029Z,100969.34
2018-11-04T02:00:59.194Z,100968.55
2018-11-04T02:01:38.894Z,100964.43
2018-11-04T02:02:17.465Z,100968.44
2018-11-04T02:02:55.727Z,100968.61
2018-11-04T02:03:34.058Z,100975.58
2018-11-04T02:04:14.769Z,100973.91
2018-11-04T02:04:53.864Z,100977.42
2018-11-04T02:05:35.578Z,100972.72
2018-11-04T02:06:15.965Z,100976.20
2018-11-04T02:06:54.017Z,100978.28
2018-11-04T02:07:33.544Z,100976.78
2018-11-04T02:08:12.845Z,100973.84
2018-11-04T02:08:51.338Z,100977.84
2018-11-04T02:09:29.883Z,100969.58
2018-11-04T02:10:08.288Z,100969.27
2018-11-04T02:10:46.236Z,100969.43
2018-11-04T02:11:24.107Z,100969.04
2018-11-04T02:12:02.034Z,100973.88
2018-11-04T02:12:41.526Z,100973.75
2018-11-04T02:13:19.869Z,100975.98
2018-11-04T02:13:58.234Z,100973.91
2018-11-04T02:14:36.551Z,100968.23
2018-11-04T02:15:15.499Z,100975.58
2018-11-04T02:15:53.509Z,100971.77
2018-11-04T02:16:31.563Z,100980.58
2018-11-04T02:17:09.694Z,100975.48
2018-11-04T02:17:47.632Z,100980.48
2018-11-04T02:18:25.640Z,100979.50
2018-11-04T02:19:03.594Z,100977.53
2018-11-04T02:19:41.727Z,100983.70
2018-11-04T02:20:19.666Z,100980.52
2018-11-04T02:20:57.769Z,100987.12
2018-11-04T02:21:35.892Z,100989.34
2018-11-04T02:22:14.732Z,100985.08
2018-11-04T02:22:52.861Z,100988.16
2018-11-04T02:23:30.868Z,100987.66
2018-11-04T02:24:09.836Z,100982.05
2018-11-04T02:24:47.850Z,100985.38
2018-11-04T02:25:25.741Z,100991.63
2018-11-04T02:26:04.002Z,100985.16
2018-11-04T02:26:42.688Z,100984.36
2018-11-04T02:27:20.635Z,100982.75
2018-11-04T02:27:58.808Z,100987.92
2018-11-04T02:28:36.764Z,100981.14
2018-11-04T02:29:14.829Z,100977.58
2018-11-04T02:29:52.744Z,100980.84
2018-11-04T02:30:30.632Z,100975.97
2018-11-04T02:31:09.134Z,100972.20
2018-11-04T02:31:47.104Z,100980.04
2018-11-04T02:32:24.983Z,100976.22
2018-11-04T02:33:03.046Z,100983.25
2018-11-04T02:33:40.973Z,100981.86
2018-11-04T02:34:19.084Z,100974.22
2018-11-04T02:34:57.040Z,100976.88
2018-11-04T02:35:34.988Z,100973.42
2018-11-04T02:39:15.332Z,100971.09
2018-11-04T02:39:59.031Z,100969.50
2018-11-04T02:40:37.096Z,100969.50
2018-11-04T02:41:15.885Z,100974.61
2018-11-04T02:41:55.233Z,100970.55
2018-11-04T02:42:33.458Z,100971.09
2018-11-04T02:43:11.374Z,100968.08
2018-11-04T02:43:49.316Z,100968.14
2018-11-04T02:44:27.235Z,100965.67
2018-11-04T02:45:05.128Z,100972.89
2018-11-04T02:45:43.132Z,100971.75
2018-11-04T02:46:21.380Z,100971.70
2018-11-04T02:46:59.510Z,100975.20
2018-11-04T02:47:37.972Z,100974.53
2018-11-04T02:48:15.953Z,100973.26
2018-11-04T02:48:54.163Z,100971.90
2018-11-04T02:49:32.032Z,100966.78
2018-11-04T02:50:11.317Z,100970.91
2018-11-04T02:50:49.272Z,100972.84
2018-11-04T02:51:27.183Z,100968.03
2018-11-04T02:52:05.182Z,100969.39
2018-11-04T02:52:43.530Z,100969.14
2018-11-04T02:53:21.416Z,100970.75
2018-11-04T02:53:59.517Z,100962.86
2018-11-04T02:54:37.368Z,100965.27
2018-11-04T02:55:15.329Z,100959.28
2018-11-04T02:55:53.394Z,100954.39
2018-11-04T02:56:31.378Z,100957.59
2018-11-04T02:57:09.441Z,100955.13
2018-11-04T02:57:47.533Z,100955.63
2018-11-04T02:58:25.424Z,100963.45
2018-11-04T02:59:03.636Z,100958.28
2018-11-04T02:59:41.877Z,100955.66
2018-11-04T03:00:19.876Z,100960.26
2018-11-04T03:00:57.923Z,100955.06
2018-11-04T03:01:35.790Z,100959.56
2018-11-04T03:02:14.140Z,100963.81
2018-11-04T03:02:52.093Z,100960.52
2018-11-04T03:03:30.350Z,100958.17
2018-11-04T03:04:08.595Z,100958.41
2018-11-04T03:04:46.575Z,100960.39
2018-11-04T03:05:24.828Z,100958.69
2018-11-04T03:06:02.780Z,100957.53
2018-11-04T03:06:40.958Z,100952.95
2018-11-04T03:07:19.008Z,100957.61
2018-11-04T03:07:56.995Z,100953.03
2018-11-04T03:08:34.897Z,100955.03
2018-11-04T03:09:13.809Z,100961.76
2018-11-04T03:09:51.951Z,100960.52
2018-11-04T03:10:29.824Z,100958.45
2018-11-04T03:11:07.804Z,100954.17
2018-11-04T03:11:45.665Z,100953.53
2018-11-04T03:12:23.722Z,100957.45
2018-11-04T03:13:01.702Z,100958.02
2018-11-04T03:13:39.657Z,100961.53
2018-11-04T03:14:17.806Z,100956.97
2018-11-04T03:14:55.897Z,100956.72
2018-11-04T03:15:34.173Z,100957.00
2018-11-04T03:16:12.422Z,100951.80
2018-11-04T03:16:50.379Z,100961.09
2018-11-04T03:17:28.636Z,100963.45
2018-11-04T03:18:06.583Z,100957.38
2018-11-04T03:18:44.643Z,100959.13
2018-11-04T03:19:22.688Z,100960.89
2018-11-04T03:20:00.736Z,100956.73
2018-11-04T03:20:38.750Z,100956.02
2018-11-04T03:21:17.314Z,100958.64
2018-11-04T03:21:55.232Z,100952.20
2018-11-04T03:22:33.651Z,100948.69
2018-11-04T03:23:11.873Z,100958.13
2018-11-04T03:23:49.826Z,100954.56
2018-11-04T03:24:28.852Z,100949.97
2018-11-04T03:25:06.834Z,100952.45
2018-11-04T03:25:45.881Z,100947.89
2018-11-04T03:26:23.816Z,100954.12
2018-11-04T03:27:01.956Z,100946.61
2018-11-04T03:27:40.169Z,100949.33
2018-11-04T03:28:18.011Z,100948.38
2018-11-04T03:28:56.337Z,100946.09
2018-11-04T03:29:34.345Z,100945.37
2018-11-04T03:30:12.960Z,100945.13
2018-11-04T03:30:50.881Z,100941.38
2018-11-04T03:31:28.847Z,100945.78
2018-11-04T03:32:06.835Z,100942.02
2018-11-04T03:32:44.978Z,100939.97
2018-11-04T03:33:22.929Z,100939.17
2018-11-04T03:34:01.034Z,100936.55
2018-11-04T03:34:38.945Z,100940.98
2018-11-04T03:35:16.923Z,100942.73
2018-11-04T03:35:55.229Z,100943.37
2018-11-04T03:36:33.196Z,100944.09
2018-11-04T03:37:11.143Z,100944.80
2018-11-04T03:37:49.160Z,100943.30
2018-11-04T03:38:27.048Z,100945.52
2018-11-04T03:39:05.743Z,100942.80
2018-11-04T03:39:43.790Z,100944.48
2018-11-04T03:40:21.864Z,100945.14
2018-11-04T03:41:00.015Z,100942.41
2018-11-04T03:41:38.010Z,100940.17
2018-11-04T03:42:16.146Z,100943.61
2018-11-04T03:42:54.258Z,100942.25
2018-11-04T03:43:33.891Z,100941.84
2018-11-04T03:44:11.687Z,100941.59
2018-11-04T03:44:49.725Z,100946.39
2018-11-04T03:45:27.647Z,100939.35
2018-11-04T03:46:05.702Z,100934.94
2018-11-04T03:46:43.695Z,100939.35
2018-11-04T03:47:21.681Z,100935.27
2018-11-04T03:47:59.822Z,100935.74
2018-11-04T03:48:37.989Z,100924.61
2018-11-04T03:49:15.892Z,100934.30
2018-11-04T03:49:53.929Z,100931.72
2018-11-04T03:50:31.900Z,100928.14
2018-11-04T03:51:10.084Z,100925.13
2018-11-04T03:51:48.074Z,100924.56
2018-11-04T03:52:26.963Z,100928.28
2018-11-04T03:53:08.693Z,100924.91
2018-11-04T03:53:46.619Z,100925.18
2018-11-04T03:54:26.530Z,100921.27
2018-11-04T03:55:04.533Z,100920.23
2018-11-04T03:55:42.360Z,100918.47
2018-11-04T03:56:20.857Z,100923.26
2018-11-04T03:56:58.698Z,100919.17
2018-11-04T03:57:36.586Z,100921.66
2018-11-04T03:58:17.431Z,100920.77
2018-11-04T03:58:55.823Z,100918.94
2018-11-04T03:59:33.867Z,100920.30
2018-11-04T04:00:14.514Z,100925.69
2018-11-04T04:00:52.660Z,100924.14
2018-11-04T04:01:31.805Z,100916.92
2018-11-04T04:02:10.061Z,100916.03
2018-11-04T04:02:48.850Z,100915.14
2018-11-04T04:03:26.799Z,100919.38
2018-11-04T04:04:04.730Z,100914.58
2018-11-04T04:04:43.609Z,100912.95
2018-11-04T04:05:21.738Z,100920.73
2018-11-04T04:06:00.436Z,100923.69
2018-11-04T04:06:39.725Z,100917.03
2018-11-04T04:07:18.406Z,100921.67
2018-11-04T04:07:56.553Z,100919.23
2018-11-04T04:08:34.726Z,100917.25
2018-11-04T04:09:13.233Z,100918.54
2018-11-04T04:09:51.196Z,100917.58
2018-11-04T04:10:29.096Z,100914.48
2018-11-04T04:11:07.125Z,100915.98
2018-11-04T04:11:45.028Z,100919.02
2018-11-04T04:12:23.025Z,100917.77
2018-11-04T04:13:00.998Z,100916.06
2018-11-04T04:13:39.921Z,100910.87
2018-11-04T04:14:18.052Z,100910.78
2018-11-04T04:14:55.929Z,100905.08
2018-11-04T04:15:33.780Z,100905.41
2018-11-04T04:16:11.732Z,100903.72
2018-11-04T04:16:49.591Z,100906.67
2018-11-04T04:17:28.392Z,100906.84
2018-11-04T04:18:06.347Z,100906.78
2018-11-04T04:18:44.459Z,100904.07
2018-11-04T04:19:22.402Z,100899.58
2018-11-04T04:20:00.610Z,100902.84
2018-11-04T04:20:38.913Z,100904.92
2018-11-04T04:21:17.117Z,100903.17
2018-11-04T04:21:55.372Z,100898.45
2018-11-04T04:22:33.519Z,100904.92
2018-11-04T04:23:11.480Z,100900.19
2018-11-04T04:23:49.432Z,100900.73
2018-11-04T04:24:27.542Z,100899.16
2018-11-04T04:25:05.896Z,100902.89
2018-11-04T04:25:43.774Z,100897.17
2018-11-04T04:26:21.771Z,100901.48
2018-11-04T04:26:59.568Z,100894.03
2018-11-04T04:27:37.561Z,100897.09
2018-11-04T04:28:15.524Z,100896.11
2018-11-04T04:28:53.440Z,100889.62
2018-11-04T04:29:31.336Z,100889.24
2018-11-04T04:30:11.888Z,100887.55
2018-11-04T04:30:50.102Z,100890.93
2018-11-04T04:31:28.274Z,100886.28
2018-11-04T04:32:06.310Z,100886.38
2018-11-04T04:32:44.304Z,100884.59
2018-11-04T04:33:22.246Z,100883.80
2018-11-04T04:34:00.260Z,100874.36
2018-11-04T04:34:38.867Z,100881.72
2018-11-04T04:35:16.888Z,100871.78
2018-11-04T04:35:54.883Z,100875.95
2018-11-04T04:36:32.918Z,100875.13
2018-11-04T04:37:10.960Z,100872.25
2018-11-04T04:37:49.200Z,100873.05
2018-11-04T04:38:28.392Z,100867.11
2018-11-04T04:39:06.704Z,100869.69
2018-11-04T04:39:45.122Z,100865.39
2018-11-04T04:40:23.041Z,100868.91
2018-11-04T04:41:01.109Z,100858.73
2018-11-04T04:41:40.012Z,100859.77
2018-11-04T04:42:17.934Z,100858.43
2018-11-04T04:42:55.853Z,100860.29
2018-11-04T04:43:33.838Z,100857.56
2018-11-04T04:44:11.822Z,100858.83
2018-11-04T04:44:50.133Z,100856.57
2018-11-04T04:45:28.024Z,100858.42
2018-11-04T04:46:06.055Z,100859.72
2018-11-04T04:46:44.021Z,100852.02
2018-11-04T04:47:21.889Z,100849.55
2018-11-04T04:48:00.158Z,100848.34
2018-11-04T04:48:37.990Z,100843.63
2018-11-04T04:49:16.552Z,100836.88
2018-11-04T04:49:54.650Z,100839.36
2018-11-04T04:50:32.661Z,100837.28
2018-11-04T04:51:10.815Z,100837.69
2018-11-04T04:51:48.720Z,100836.09
2018-11-04T04:52:26.630Z,100831.77
2018-11-04T04:53:04.684Z,100834.27
2018-11-04T04:53:42.810Z,100827.14
2018-11-04T04:54:20.867Z,100817.45
2018-11-04T04:54:58.833Z,100829.69
2018-11-04T04:55:36.883Z,100821.53
2018-11-04T04:56:14.910Z,100817.78
2018-11-04T04:56:53.217Z,100816.75
2018-11-04T04:57:32.367Z,100809.08
2018-11-04T04:58:11.171Z,100812.97
2018-11-04T04:58:49.927Z,100809.98
2018-11-04T04:59:29.808Z,100809.80
2018-11-04T05:00:08.845Z,100800.45
2018-11-04T05:00:47.749Z,100799.01
2018-11-04T05:01:26.688Z,100797.48
2018-11-04T05:02:05.703Z,100794.84
2018-11-04T05:02:44.579Z,100801.05
2018-11-04T05:03:23.038Z,100793.61
2018-11-04T05:04:01.206Z,100787.86
2018-11-04T05:04:40.078Z,100791.38
2018-11-04T05:05:18.795Z,100784.70
2018-11-04T05:05:56.982Z,100784.73
2018-11-04T05:06:34.994Z,100780.74
2018-11-04T05:07:12.802Z,100777.64
2018-11-04T05:07:50.853Z,100776.58
2018-11-04T05:08:28.882Z,100777.06
2018-11-04T05:09:07.716Z,100773.55
2018-11-04T05:09:46.217Z,100774.97
2018-11-04T05:10:25.452Z,100771.54
2018-11-04T05:11:04.855Z,100766.48
2018-11-04T05:11:42.791Z,100765.60
2018-11-04T05:12:20.971Z,100760.07
2018-11-04T05:12:58.953Z,100762.97
2018-11-04T05:13:36.817Z,100757.70
2018-11-04T05:14:14.699Z,100756.10
2018-11-04T05:14:52.626Z,100754.80
2018-11-04T05:15:30.517Z,100749.69
2018-11-04T05:16:08.766Z,100746.49
2018-11-04T05:16:46.734Z,100744.89
2018-11-04T05:17:24.848Z,100742.17
2018-11-04T05:18:02.856Z,100740.58
2018-11-04T05:18:40.706Z,100732.98
2018-11-04T05:19:18.630Z,100733.78
2018-11-04T05:19:56.530Z,100727.54
2018-11-04T05:20:35.225Z,100732.18
2018-11-04T05:21:14.598Z,100735.78
2018-11-04T05:21:52.787Z,100726.12
2018-11-04T05:22:30.737Z,100726.20
2018-11-04T05:23:09.390Z,100727.09
2018-11-04T05:23:47.486Z,100722.30
2018-11-04T05:24:25.989Z,100721.87
2018-11-04T05:25:04.057Z,100719.01
2018-11-04T05:25:41.996Z,100718.91
2018-11-04T05:26:19.964Z,100717.31
2018-11-04T05:26:57.980Z,100713.64
2018-11-04T05:27:35.936Z,100710.69
2018-11-04T05:28:14.674Z,100709.73
2018-11-04T05:28:53.596Z,100712.27
2018-11-04T05:29:31.630Z,100706.67
2018-11-04T05:30:15.122Z,100706.84
2018-11-04T05:30:53.170Z,100706.84
2018-11-04T05:31:31.201Z,100703.33
2018-11-04T05:32:09.277Z,100705.89
2018-11-04T05:32:47.218Z,100698.86
2018-11-04T05:33:25.117Z,100697.73
2018-11-04T05:34:03.049Z,100697.50
2018-11-04T05:34:41.239Z,100689.82
2018-11-04T05:35:19.075Z,100687.10
2018-11-04T05:35:57.027Z,100692.30
2018-11-04T05:36:35.017Z,100687.98
2018-11-04T05:37:13.061Z,100691.27
2018-11-04T05:37:51.129Z,100684.80
2018-11-04T05:38:29.132Z,100682.16
2018-11-04T05:39:07.293Z,100685.11
2018-11-04T05:39:45.172Z,100689.75
2018-11-04T05:40:23.098Z,100685.67
2018-11-04T05:41:01.000Z,100691.67
2018-11-04T05:41:39.091Z,100691.72
2018-11-04T05:42:17.028Z,100688.53
2018-11-04T05:42:55.267Z,100693.24
2018-11-04T05:43:33.418Z,100693.17
2018-11-04T05:44:11.462Z,100698.92
2018-11-04T05:44:50.370Z,100691.97
2018-11-04T05:45:28.388Z,100696.66
2018-11-04T05:46:06.252Z,100697.02
2018-11-04T05:46:45.237Z,100696.55
2018-11-04T05:47:23.150Z,100691.98
2018-11-04T05:48:01.126Z,100699.17
2018-11-04T05:48:39.082Z,100695.98
2018-11-04T05:49:17.064Z,100696.38
2018-11-04T05:49:55.354Z,100694.06
2018-11-04T05:50:33.375Z,100686.77
2018-11-04T05:51:12.043Z,100688.75
2018-11-04T05:51:50.157Z,100681.88
2018-11-04T05:52:28.478Z,100678.44
2018-11-04T05:53:06.780Z,100680.67
2018-11-04T05:53:45.004Z,100671.57
2018-11-04T05:54:23.095Z,100673.80
2018-11-04T05:55:01.041Z,100669.58
2018-11-04T05:55:38.991Z,100662.46
2018-11-04T05:56:18.842Z,100666.05
2018-11-04T05:56:56.877Z,100666.69
2018-11-04T05:57:34.993Z,100661.89
2018-11-04T05:58:13.180Z,100664.12
2018-11-04T05:58:51.256Z,100656.09
2018-11-04T05:59:29.436Z,100654.33
2018-11-04T06:00:07.847Z,100655.83
2018-11-04T06:00:45.992Z,100653.82
2018-11-04T06:01:24.672Z,100656.61
2018-11-04T06:02:03.906Z,100649.63
2018-11-04T06:02:42.343Z,100650.49
2018-11-04T06:03:20.503Z,100645.94
2018-11-04T06:03:59.472Z,100646.01
2018-11-04T06:04:37.892Z,100643.34
2018-11-04T06:05:16.148Z,100643.41
2018-11-04T06:05:54.101Z,100646.19
2018-11-04T06:06:32.076Z,100641.64
2018-11-04T06:07:10.367Z,100644.66
2018-11-04T06:07:48.392Z,100646.82
2018-11-04T06:08:27.546Z,100641.99
2018-11-04T06:09:06.874Z,100642.62
2018-11-04T06:09:45.088Z,100651.86
2018-11-04T06:10:23.249Z,100648.18
2018-11-04T06:11:01.292Z,100651.20
2018-11-04T06:11:39.388Z,100652.87
2018-11-04T06:12:17.379Z,100652.38
2018-11-04T06:12:55.630Z,100654.53
2018-11-04T06:13:33.688Z,100648.62
2018-11-04T06:14:12.156Z,100644.88
2018-11-04T06:14:50.754Z,100639.70
2018-11-04T06:15:30.945Z,100640.81
2018-11-04T06:16:09.755Z,100636.56
2018-11-04T06:16:49.072Z,100633.61
2018-11-04T06:17:27.336Z,100632.81
2018-11-04T06:18:05.649Z,100626.63
2018-11-04T06:18:44.188Z,100636.11
2018-11-04T06:19:22.466Z,100628.30
2018-11-04T06:20:01.109Z,100627.01
2018-11-04T06:20:39.577Z,100625.41
2018-11-04T06:21:17.813Z,100634.65
2018-11-04T06:21:57.289Z,100629.85
2018-11-04T06:22:35.416Z,100630.97
2018-11-04T06:23:13.889Z,100638.11
2018-11-04T06:23:51.957Z,100643.63
2018-11-04T06:24:29.950Z,100644.22
2018-11-04T06:25:08.095Z,100642.44
2018-11-04T06:25:46.698Z,100646.94
2018-11-04T06:26:24.652Z,100647.37
2018-11-04T06:27:03.709Z,100646.42
2018-11-04T06:27:41.931Z,100649.01
2018-11-04T06:28:20.524Z,100645.69
2018-11-04T06:28:58.634Z,100644.95
2018-11-04T06:29:36.584Z,100648.84
2018-11-04T06:30:15.678Z,100644.63
2018-11-04T06:30:54.090Z,100638.28
2018-11-04T06:31:32.172Z,100635.94
2018-11-04T06:32:10.410Z,100637.63
2018-11-04T06:32:48.423Z,100635.34
2018-11-04T06:33:26.530Z,100637.30
2018-11-04T06:34:05.578Z,100633.61
2018-11-04T06:34:43.972Z,100632.61
2018-11-04T06:35:21.960Z,100628.63
2018-11-04T06:36:00.162Z,100628.14
2018-11-04T06:36:38.383Z,100632.80
2018-11-04T06:37:16.588Z,100626.89
2018-11-04T06:37:54.772Z,100630.20
2018-11-04T06:38:33.528Z,100632.41
2018-11-04T06:39:13.155Z,100627.31
2018-11-04T06:39:51.266Z,100628.44
2018-11-04T06:40:29.371Z,100632.79
2018-11-04T06:41:07.599Z,100616.75
2018-11-04T06:41:46.010Z,100632.81
2018-11-04T06:42:24.189Z,100628.81
2018-11-04T06:43:02.432Z,100628.86
2018-11-04T06:43:41.032Z,100630.57
2018-11-04T06:44:19.178Z,100625.16
2018-11-04T06:44:58.176Z,100621.95
2018-11-04T06:45:37.024Z,100621.45
2018-11-04T06:46:15.109Z,100609.39
2018-11-04T06:46:53.731Z,100611.80
2018-11-04T06:47:31.733Z,100609.64
2018-11-04T06:48:10.133Z,100603.98
2018-11-04T06:48:48.309Z,100597.30
2018-11-04T06:49:26.478Z,100600.54
2018-11-04T06:50:04.486Z,100602.14
2018-11-04T06:50:42.430Z,100600.00
2018-11-04T06:51:20.512Z,100598.16
2018-11-04T06:51:58.702Z,100600.61
2018-11-04T06:52:36.809Z,100600.36
2018-11-04T06:53:15.536Z,100595.55
2018-11-04T06:53:53.654Z,100596.91
2018-11-04T06:54:31.676Z,100595.30
2018-11-04T06:55:10.710Z,100592.91
2018-11-04T06:55:48.773Z,100594.00
2018-11-04T06:56:26.851Z,100591.61
2018-11-04T06:57:04.910Z,100591.05
2018-11-04T06:57:43.090Z,100590.35
2018-11-04T06:58:21.106Z,100587.65
2018-11-04T06:58:59.593Z,100589.80
2018-11-04T06:59:37.548Z,100588.75
2018-11-04T07:00:15.625Z,100585.37
2018-11-04T07:00:53.846Z,100592.02
2018-11-04T07:01:31.945Z,100595.58
2018-11-04T07:02:10.021Z,100599.87
2018-11-04T07:02:48.163Z,100601.28
2018-11-04T07:03:26.797Z,100596.17
2018-11-04T07:04:15.870Z,100599.98
2018-11-04T07:04:54.257Z,100595.69
2018-11-04T07:05:32.512Z,100601.34
2018-11-04T07:06:10.549Z,100594.34
2018-11-04T07:06:48.710Z,100596.50
2018-11-04T07:07:26.876Z,100593.84
2018-11-04T07:08:04.892Z,100592.44
2018-11-04T07:08:44.084Z,100585.69
2018-11-04T07:09:22.044Z,100588.14
2018-11-04T07:10:00.353Z,100587.53
2018-11-04T07:10:38.796Z,100581.62
2018-11-04T07:11:16.806Z,100575.38
2018-11-04T07:11:54.749Z,100576.48
2018-11-04T07:12:33.048Z,100577.53
2018-11-04T07:13:11.095Z,100575.11
2018-11-04T07:13:49.082Z,100568.92
2018-11-04T07:14:27.457Z,100571.85
2018-11-04T07:15:05.505Z,100573.20
2018-11-04T07:15:43.855Z,100564.32
2018-11-04T07:16:21.900Z,100576.95
2018-11-04T07:17:00.858Z,100577.51
2018-11-04T07:17:38.813Z,100566.47
2018-11-04T07:18:16.775Z,100574.51
2018-11-04T07:18:55.106Z,100574.51
2018-11-04T07:19:32.921Z,100574.26
2018-11-04T07:20:11.686Z,100571.00